sensor_id;sensor_type;location;lat;lon;timestamp;temperature;humidity
11091;DHT22;5599;52.210;21.046;2023-08-07T00:02:05;16.60;1.00
11091;DHT22;5599;52.210;21.046;2023-08-07T00:04:35;16.60;1.00
11091;DHT22;5599;52.210;21.046;2023-08-07T00:07:05;16.60;1.00
11091;DHT22;5599;52.210;21.046;2023-08-07T00:09:35;16.70;1.00
11091;DHT22;5599;52.210;21.046;2023-08-07T00:12:04;16.60;1.00
11091;DHT22;5599;52.210;21.046;2023-08-07T00:14:33;16.60;1.00
11091;DHT22;5599;52.210;21.046;2023-08-07T00:17:03;16.60;65.90
11091;DHT22;5599;52.210;21.046;2023-08-07T00:19:33;16.60;87.90
11091;DHT22;5599;52.210;21.046;2023-08-07T00:22:03;16.50;99.90
11091;DHT22;5599;52.210;21.046;2023-08-07T00:24:33;16.50;99.90
11091;DHT22;5599;52.210;21.046;2023-08-07T00:27:03;16.40;99.90
11091;DHT22;5599;52.210;21.046;2023-08-07T00:29:32;16.50;99.90
11091;DHT22;5599;52.210;21.046;2023-08-07T00:32:01;16.40;99.90
11091;DHT22;5599;52.210;21.046;2023-08-07T00:34:30;16.40;99.90
11091;DHT22;5599;52.210;21.046;2023-08-07T00:36:59;16.30;99.90
11091;DHT22;5599;52.210;21.046;2023-08-07T00:39:28;16.30;99.90
11091;DHT22;5599;52.210;21.046;2023-08-07T00:41:59;16.10;99.90
11091;DHT22;5599;52.210;21.046;2023-08-07T00:44:28;16.20;99.90
11091;DHT22;5599;52.210;21.046;2023-08-07T00:46:57;16.20;99.90
11091;DHT22;5599;52.210;21.046;2023-08-07T00:49:26;16.20;99.90
11091;DHT22;5599;52.210;21.046;2023-08-07T00:51:55;16.30;99.90
11091;DHT22;5599;52.210;21.046;2023-08-07T00:54:25;16.30;99.90
11091;DHT22;5599;52.210;21.046;2023-08-07T00:56:54;16.40;67.00
11091;DHT22;5599;52.210;21.046;2023-08-07T00:59:25;16.40;89.90
11091;DHT22;5599;52.210;21.046;2023-08-07T01:01:54;16.40;1.00
11091;DHT22;5599;52.210;21.046;2023-08-07T01:04:23;16.40;1.00
11091;DHT22;5599;52.210;21.046;2023-08-07T01:06:52;16.40;10.10
11091;DHT22;5599;52.210;21.046;2023-08-07T01:09:22;16.40;1.00
11091;DHT22;5599;52.210;21.046;2023-08-07T01:11:57;16.40;1.00
11091;DHT22;5599;52.210;21.046;2023-08-07T01:14:37;16.40;1.00
11091;DHT22;5599;52.210;21.046;2023-08-07T01:17:11;16.30;3.20
11091;DHT22;5599;52.210;21.046;2023-08-07T01:19:42;16.30;64.80
11091;DHT22;5599;52.210;21.046;2023-08-07T01:22:15;16.30;25.70
11091;DHT22;5599;52.210;21.046;2023-08-07T01:24:46;16.20;99.90
11091;DHT22;5599;52.210;21.046;2023-08-07T01:27:31;16.30;99.90
11091;DHT22;5599;52.210;21.046;2023-08-07T01:30:26;16.30;37.50
11091;DHT22;5599;52.210;21.046;2023-08-07T01:33:04;16.30;99.90
11091;DHT22;5599;52.210;21.046;2023-08-07T01:35:41;16.20;94.30
11091;DHT22;5599;52.210;21.046;2023-08-07T01:38:13;16.20;99.90
11091;DHT22;5599;52.210;21.046;2023-08-07T01:40:43;16.10;99.90
11091;DHT22;5599;52.210;21.046;2023-08-07T01:43:13;16.00;99.90
11091;DHT22;5599;52.210;21.046;2023-08-07T01:45:42;16.00;99.90
11091;DHT22;5599;52.210;21.046;2023-08-07T01:48:11;16.00;99.90
11091;DHT22;5599;52.210;21.046;2023-08-07T01:50:40;16.00;99.90
11091;DHT22;5599;52.210;21.046;2023-08-07T01:53:10;16.10;99.90
11091;DHT22;5599;52.210;21.046;2023-08-07T01:55:40;16.00;99.90
11091;DHT22;5599;52.210;21.046;2023-08-07T01:58:09;16.00;99.90
11091;DHT22;5599;52.210;21.046;2023-08-07T02:00:38;15.90;99.90
11091;DHT22;5599;52.210;21.046;2023-08-07T02:03:09;15.90;99.90
11091;DHT22;5599;52.210;21.046;2023-08-07T02:05:38;15.80;99.90
11091;DHT22;5599;52.210;21.046;2023-08-07T02:08:07;15.80;99.90
11091;DHT22;5599;52.210;21.046;2023-08-07T02:10:36;15.80;99.90
11091;DHT22;5599;52.210;21.046;2023-08-07T02:13:07;15.80;99.90
11091;DHT22;5599;52.210;21.046;2023-08-07T02:15:37;15.70;99.90
11091;DHT22;5599;52.210;21.046;2023-08-07T02:18:06;15.80;99.90
11091;DHT22;5599;52.210;21.046;2023-08-07T02:20:35;15.80;99.90
11091;DHT22;5599;52.210;21.046;2023-08-07T02:23:04;15.80;99.90
11091;DHT22;5599;52.210;21.046;2023-08-07T02:25:34;15.80;99.90
11091;DHT22;5599;52.210;21.046;2023-08-07T02:28:03;15.80;99.90
11091;DHT22;5599;52.210;21.046;2023-08-07T02:30:34;15.80;99.90
11091;DHT22;5599;52.210;21.046;2023-08-07T02:33:04;15.80;99.90
11091;DHT22;5599;52.210;21.046;2023-08-07T02:35:32;15.80;99.90
11091;DHT22;5599;52.210;21.046;2023-08-07T02:38:02;15.80;99.90
11091;DHT22;5599;52.210;21.046;2023-08-07T02:40:31;15.70;99.90
11091;DHT22;5599;52.210;21.046;2023-08-07T02:43:00;15.70;99.90
11091;DHT22;5599;52.210;21.046;2023-08-07T02:45:29;15.70;99.90
11091;DHT22;5599;52.210;21.046;2023-08-07T02:48:00;15.70;99.90
11091;DHT22;5599;52.210;21.046;2023-08-07T02:50:30;15.70;99.90
11091;DHT22;5599;52.210;21.046;2023-08-07T02:53:00;15.70;99.90
11091;DHT22;5599;52.210;21.046;2023-08-07T02:55:29;15.70;99.90
11091;DHT22;5599;52.210;21.046;2023-08-07T02:57:58;15.80;99.90
11091;DHT22;5599;52.210;21.046;2023-08-07T03:00:28;15.80;99.90
11091;DHT22;5599;52.210;21.046;2023-08-07T03:02:57;15.80;99.90
11091;DHT22;5599;52.210;21.046;2023-08-07T03:05:27;15.80;99.90
11091;DHT22;5599;52.210;21.046;2023-08-07T03:07:56;15.70;99.90
11091;DHT22;5599;52.210;21.046;2023-08-07T03:10:25;15.60;99.90
11091;DHT22;5599;52.210;21.046;2023-08-07T03:12:55;15.60;99.90
11091;DHT22;5599;52.210;21.046;2023-08-07T03:15:24;15.60;99.90
11091;DHT22;5599;52.210;21.046;2023-08-07T03:17:53;15.60;99.90
11091;DHT22;5599;52.210;21.046;2023-08-07T03:20:22;15.60;99.90
11091;DHT22;5599;52.210;21.046;2023-08-07T03:22:53;15.60;99.90
11091;DHT22;5599;52.210;21.046;2023-08-07T03:25:22;15.50;99.90
11091;DHT22;5599;52.210;21.046;2023-08-07T03:27:51;15.50;99.90
11091;DHT22;5599;52.210;21.046;2023-08-07T03:30:20;15.50;99.90
11091;DHT22;5599;52.210;21.046;2023-08-07T03:32:49;15.50;99.90
11091;DHT22;5599;52.210;21.046;2023-08-07T03:35:19;15.50;99.90
11091;DHT22;5599;52.210;21.046;2023-08-07T03:37:49;15.50;99.90
11091;DHT22;5599;52.210;21.046;2023-08-07T03:40:20;15.60;99.90
11091;DHT22;5599;52.210;21.046;2023-08-07T03:42:49;15.60;99.90
11091;DHT22;5599;52.210;21.046;2023-08-07T03:45:18;15.60;99.90
11091;DHT22;5599;52.210;21.046;2023-08-07T03:47:47;15.60;99.90
11091;DHT22;5599;52.210;21.046;2023-08-07T03:50:16;15.50;99.90
11091;DHT22;5599;52.210;21.046;2023-08-07T03:52:45;15.50;99.90
11091;DHT22;5599;52.210;21.046;2023-08-07T03:55:15;15.50;99.90
11091;DHT22;5599;52.210;21.046;2023-08-07T03:57:45;15.50;99.90
11091;DHT22;5599;52.210;21.046;2023-08-07T04:00:15;15.50;99.90
11091;DHT22;5599;52.210;21.046;2023-08-07T04:02:44;15.50;99.90
11091;DHT22;5599;52.210;21.046;2023-08-07T04:05:14;15.50;99.90
11091;DHT22;5599;52.210;21.046;2023-08-07T04:07:43;15.50;99.90
11091;DHT22;5599;52.210;21.046;2023-08-07T04:10:12;15.50;99.90
11091;DHT22;5599;52.210;21.046;2023-08-07T04:12:41;15.50;99.90
11091;DHT22;5599;52.210;21.046;2023-08-07T04:15:12;15.50;99.90
11091;DHT22;5599;52.210;21.046;2023-08-07T04:17:42;15.50;99.90
11091;DHT22;5599;52.210;21.046;2023-08-07T04:20:11;15.50;99.90
11091;DHT22;5599;52.210;21.046;2023-08-07T04:22:40;15.50;84.50
11091;DHT22;5599;52.210;21.046;2023-08-07T04:25:10;15.50;87.10
11091;DHT22;5599;52.210;21.046;2023-08-07T04:27:39;15.60;18.60
11091;DHT22;5599;52.210;21.046;2023-08-07T04:30:08;15.50;1.00
11091;DHT22;5599;52.210;21.046;2023-08-07T04:32:39;15.60;38.80
11091;DHT22;5599;52.210;21.046;2023-08-07T04:35:08;15.60;1.00
11091;DHT22;5599;52.210;21.046;2023-08-07T04:37:38;15.70;1.00
11091;DHT22;5599;52.210;21.046;2023-08-07T04:40:09;15.70;1.00
11091;DHT22;5599;52.210;21.046;2023-08-07T04:42:38;15.70;1.00
11091;DHT22;5599;52.210;21.046;2023-08-07T04:45:08;15.70;1.00
11091;DHT22;5599;52.210;21.046;2023-08-07T04:47:39;15.70;1.00
11091;DHT22;5599;52.210;21.046;2023-08-07T04:50:09;15.80;1.00
11091;DHT22;5599;52.210;21.046;2023-08-07T04:52:39;15.80;1.00
11091;DHT22;5599;52.210;21.046;2023-08-07T04:55:08;15.90;1.00
11091;DHT22;5599;52.210;21.046;2023-08-07T04:57:37;15.90;99.90
11091;DHT22;5599;52.210;21.046;2023-08-07T05:00:07;16.00;99.90
11091;DHT22;5599;52.210;21.046;2023-08-07T05:02:38;16.10;99.90
11091;DHT22;5599;52.210;21.046;2023-08-07T05:05:08;16.20;1.00
11091;DHT22;5599;52.210;21.046;2023-08-07T05:07:37;16.20;1.00
11091;DHT22;5599;52.210;21.046;2023-08-07T05:10:08;16.20;1.00
11091;DHT22;5599;52.210;21.046;2023-08-07T05:12:37;16.20;99.90
11091;DHT22;5599;52.210;21.046;2023-08-07T05:15:07;16.20;1.00
11091;DHT22;5599;52.210;21.046;2023-08-07T05:17:36;16.30;1.00
11091;DHT22;5599;52.210;21.046;2023-08-07T05:20:08;16.30;1.00
11091;DHT22;5599;52.210;21.046;2023-08-07T05:22:38;16.40;1.00
11091;DHT22;5599;52.210;21.046;2023-08-07T05:25:08;16.40;5.00
11091;DHT22;5599;52.210;21.046;2023-08-07T05:27:39;16.40;99.90
11091;DHT22;5599;52.210;21.046;2023-08-07T05:30:10;16.40;99.90
11091;DHT22;5599;52.210;21.046;2023-08-07T05:32:39;16.30;99.90
11091;DHT22;5599;52.210;21.046;2023-08-07T05:35:10;16.30;99.90
11091;DHT22;5599;52.210;21.046;2023-08-07T05:37:39;16.40;99.90
11091;DHT22;5599;52.210;21.046;2023-08-07T05:40:08;16.40;99.90
11091;DHT22;5599;52.210;21.046;2023-08-07T05:42:39;16.30;99.90
11091;DHT22;5599;52.210;21.046;2023-08-07T05:45:10;16.30;1.00
11091;DHT22;5599;52.210;21.046;2023-08-07T05:47:39;16.30;1.00
11091;DHT22;5599;52.210;21.046;2023-08-07T05:50:10;16.30;1.00
11091;DHT22;5599;52.210;21.046;2023-08-07T05:52:39;16.30;1.00
11091;DHT22;5599;52.210;21.046;2023-08-07T05:55:09;16.40;1.00
11091;DHT22;5599;52.210;21.046;2023-08-07T05:57:38;16.40;1.00
11091;DHT22;5599;52.210;21.046;2023-08-07T06:00:08;16.40;1.00
11091;DHT22;5599;52.210;21.046;2023-08-07T06:02:41;16.40;1.00
11091;DHT22;5599;52.210;21.046;2023-08-07T06:05:12;16.40;1.00
11091;DHT22;5599;52.210;21.046;2023-08-07T06:07:42;16.40;1.00
11091;DHT22;5599;52.210;21.046;2023-08-07T06:10:12;16.40;1.00
11091;DHT22;5599;52.210;21.046;2023-08-07T06:12:41;16.30;1.00
11091;DHT22;5599;52.210;21.046;2023-08-07T06:15:10;16.40;1.00
11091;DHT22;5599;52.210;21.046;2023-08-07T06:17:39;16.20;1.00
11091;DHT22;5599;52.210;21.046;2023-08-07T06:20:09;16.20;1.00
11091;DHT22;5599;52.210;21.046;2023-08-07T06:22:40;16.10;1.00
11091;DHT22;5599;52.210;21.046;2023-08-07T06:25:10;16.10;1.00
11091;DHT22;5599;52.210;21.046;2023-08-07T06:27:39;16.00;1.00
11091;DHT22;5599;52.210;21.046;2023-08-07T06:30:09;16.00;1.00
11091;DHT22;5599;52.210;21.046;2023-08-07T06:32:39;16.10;1.00
11091;DHT22;5599;52.210;21.046;2023-08-07T06:35:09;16.10;1.00
11091;DHT22;5599;52.210;21.046;2023-08-07T06:37:40;16.20;1.00
11091;DHT22;5599;52.210;21.046;2023-08-07T06:40:10;16.30;99.90
11091;DHT22;5599;52.210;21.046;2023-08-07T06:42:39;16.30;99.90
11091;DHT22;5599;52.210;21.046;2023-08-07T06:45:09;16.40;99.90
11091;DHT22;5599;52.210;21.046;2023-08-07T06:47:39;16.50;99.90
11091;DHT22;5599;52.210;21.046;2023-08-07T06:50:09;16.60;1.00
11091;DHT22;5599;52.210;21.046;2023-08-07T06:52:39;16.60;99.90
11091;DHT22;5599;52.210;21.046;2023-08-07T06:55:09;16.60;99.90
11091;DHT22;5599;52.210;21.046;2023-08-07T06:57:38;16.70;1.00
11091;DHT22;5599;52.210;21.046;2023-08-07T07:00:09;16.70;99.90
11091;DHT22;5599;52.210;21.046;2023-08-07T07:02:38;16.60;99.90
11091;DHT22;5599;52.210;21.046;2023-08-07T07:05:08;16.70;1.00
11091;DHT22;5599;52.210;21.046;2023-08-07T07:07:40;16.80;99.90
11091;DHT22;5599;52.210;21.046;2023-08-07T07:10:09;17.10;1.00
11091;DHT22;5599;52.210;21.046;2023-08-07T07:12:39;17.80;99.90
11091;DHT22;5599;52.210;21.046;2023-08-07T07:15:09;18.40;99.90
11091;DHT22;5599;52.210;21.046;2023-08-07T07:17:38;18.90;99.90
11091;DHT22;5599;52.210;21.046;2023-08-07T07:20:08;19.30;99.90
11091;DHT22;5599;52.210;21.046;2023-08-07T07:22:39;19.60;99.90
11091;DHT22;5599;52.210;21.046;2023-08-07T07:25:11;20.00;60.10
11091;DHT22;5599;52.210;21.046;2023-08-07T07:27:40;20.60;99.90
11091;DHT22;5599;52.210;21.046;2023-08-07T07:30:10;20.80;1.00
11091;DHT22;5599;52.210;21.046;2023-08-07T07:32:40;20.80;99.90
11091;DHT22;5599;52.210;21.046;2023-08-07T07:35:09;20.60;99.90
11091;DHT22;5599;52.210;21.046;2023-08-07T07:37:40;20.30;3.90
11091;DHT22;5599;52.210;21.046;2023-08-07T07:40:10;20.00;1.00
11091;DHT22;5599;52.210;21.046;2023-08-07T07:42:40;19.80;1.00
11091;DHT22;5599;52.210;21.046;2023-08-07T07:45:09;19.70;1.00
11091;DHT22;5599;52.210;21.046;2023-08-07T07:47:39;19.60;1.00
11091;DHT22;5599;52.210;21.046;2023-08-07T07:50:09;19.40;2.30
11091;DHT22;5599;52.210;21.046;2023-08-07T07:52:42;19.30;1.00
11091;DHT22;5599;52.210;21.046;2023-08-07T07:55:11;19.20;6.20
11091;DHT22;5599;52.210;21.046;2023-08-07T07:57:41;19.10;99.90
11091;DHT22;5599;52.210;21.046;2023-08-07T08:00:11;18.80;99.90
11091;DHT22;5599;52.210;21.046;2023-08-07T08:02:41;18.70;1.00
11091;DHT22;5599;52.210;21.046;2023-08-07T08:05:11;18.60;1.00
11091;DHT22;5599;52.210;21.046;2023-08-07T08:07:42;18.60;99.90
11091;DHT22;5599;52.210;21.046;2023-08-07T08:10:11;18.70;1.00
11091;DHT22;5599;52.210;21.046;2023-08-07T08:12:41;18.70;1.00
11091;DHT22;5599;52.210;21.046;2023-08-07T08:15:10;18.90;99.90
11091;DHT22;5599;52.210;21.046;2023-08-07T08:17:39;19.30;99.90
11091;DHT22;5599;52.210;21.046;2023-08-07T08:20:12;19.60;1.00
11091;DHT22;5599;52.210;21.046;2023-08-07T08:41:02;19.40;99.90
11091;DHT22;5599;52.210;21.046;2023-08-07T08:44:01;19.60;99.90
11091;DHT22;5599;52.210;21.046;2023-08-07T08:47:02;19.40;99.90
11091;DHT22;5599;52.210;21.046;2023-08-07T08:49:45;19.30;99.90
11091;DHT22;5599;52.210;21.046;2023-08-07T08:52:44;19.10;99.90
11091;DHT22;5599;52.210;21.046;2023-08-07T08:55:22;18.90;1.00
11091;DHT22;5599;52.210;21.046;2023-08-07T08:58:35;19.00;1.00
11091;DHT22;5599;52.210;21.046;2023-08-07T09:01:19;19.00;1.00
11091;DHT22;5599;52.210;21.046;2023-08-07T09:03:56;19.10;1.00
11091;DHT22;5599;52.210;21.046;2023-08-07T09:06:54;19.10;1.00
11091;DHT22;5599;52.210;21.046;2023-08-07T09:09:32;19.20;99.90
11091;DHT22;5599;52.210;21.046;2023-08-07T09:12:04;19.20;99.90
11091;DHT22;5599;52.210;21.046;2023-08-07T09:14:37;19.70;99.90
11091;DHT22;5599;52.210;21.046;2023-08-07T09:17:08;20.20;99.90
11091;DHT22;5599;52.210;21.046;2023-08-07T09:20:00;20.50;99.90
11091;DHT22;5599;52.210;21.046;2023-08-07T09:22:34;20.70;99.90
11091;DHT22;5599;52.210;21.046;2023-08-07T09:25:07;20.90;99.90
11091;DHT22;5599;52.210;21.046;2023-08-07T09:27:39;20.90;1.00
11091;DHT22;5599;52.210;21.046;2023-08-07T09:30:12;21.10;99.90
11091;DHT22;5599;52.210;21.046;2023-08-07T09:32:47;21.70;99.90
11091;DHT22;5599;52.210;21.046;2023-08-07T09:35:22;22.10;99.90
11091;DHT22;5599;52.210;21.046;2023-08-07T09:37:57;22.30;99.90
11091;DHT22;5599;52.210;21.046;2023-08-07T09:40:27;22.20;99.90
11091;DHT22;5599;52.210;21.046;2023-08-07T09:43:01;22.30;99.90
11091;DHT22;5599;52.210;21.046;2023-08-07T09:45:48;22.40;99.90
11091;DHT22;5599;52.210;21.046;2023-08-07T09:48:23;22.20;1.00
11091;DHT22;5599;52.210;21.046;2023-08-07T09:50:58;22.20;90.10
11091;DHT22;5599;52.210;21.046;2023-08-07T09:53:30;21.80;99.90
11091;DHT22;5599;52.210;21.046;2023-08-07T09:56:01;21.40;99.90
11091;DHT22;5599;52.210;21.046;2023-08-07T09:58:46;21.30;99.90
11091;DHT22;5599;52.210;21.046;2023-08-07T10:01:18;21.20;1.00
11091;DHT22;5599;52.210;21.046;2023-08-07T10:04:07;21.10;99.90
11091;DHT22;5599;52.210;21.046;2023-08-07T10:07:04;21.30;99.90
11091;DHT22;5599;52.210;21.046;2023-08-07T10:09:37;21.50;99.90
11091;DHT22;5599;52.210;21.046;2023-08-07T10:12:18;21.90;1.00
11091;DHT22;5599;52.210;21.046;2023-08-07T10:14:48;22.20;99.90
11091;DHT22;5599;52.210;21.046;2023-08-07T10:17:32;22.30;99.90
11091;DHT22;5599;52.210;21.046;2023-08-07T10:20:09;22.20;1.00
11091;DHT22;5599;52.210;21.046;2023-08-07T10:22:39;22.20;99.90
11091;DHT22;5599;52.210;21.046;2023-08-07T10:25:09;22.10;1.00
11091;DHT22;5599;52.210;21.046;2023-08-07T10:27:40;22.10;99.90
11091;DHT22;5599;52.210;21.046;2023-08-07T10:30:12;22.10;99.90
11091;DHT22;5599;52.210;21.046;2023-08-07T10:32:46;22.20;99.90
11091;DHT22;5599;52.210;21.046;2023-08-07T10:35:24;22.10;1.00
11091;DHT22;5599;52.210;21.046;2023-08-07T10:37:53;22.30;1.00
11091;DHT22;5599;52.210;21.046;2023-08-07T10:40:23;22.50;41.00
11091;DHT22;5599;52.210;21.046;2023-08-07T10:42:57;22.50;99.90
11091;DHT22;5599;52.210;21.046;2023-08-07T10:45:28;22.60;99.90
11091;DHT22;5599;52.210;21.046;2023-08-07T10:48:05;22.80;1.00
11091;DHT22;5599;52.210;21.046;2023-08-07T10:50:47;22.70;99.90
11091;DHT22;5599;52.210;21.046;2023-08-07T10:53:21;22.60;1.00
11091;DHT22;5599;52.210;21.046;2023-08-07T10:55:57;22.50;1.00
11091;DHT22;5599;52.210;21.046;2023-08-07T10:58:30;22.40;1.00
11091;DHT22;5599;52.210;21.046;2023-08-07T11:01:16;22.30;93.90
11091;DHT22;5599;52.210;21.046;2023-08-07T11:03:49;22.20;99.90
11091;DHT22;5599;52.210;21.046;2023-08-07T11:06:21;22.10;99.90
11091;DHT22;5599;52.210;21.046;2023-08-07T11:08:51;22.10;1.00
11091;DHT22;5599;52.210;21.046;2023-08-07T11:11:20;22.40;99.90
11091;DHT22;5599;52.210;21.046;2023-08-07T11:13:50;22.50;99.90
11091;DHT22;5599;52.210;21.046;2023-08-07T11:16:20;22.40;1.00
11091;DHT22;5599;52.210;21.046;2023-08-07T11:18:51;22.40;99.90
11091;DHT22;5599;52.210;21.046;2023-08-07T11:21:20;22.40;99.90
11091;DHT22;5599;52.210;21.046;2023-08-07T11:23:49;22.60;99.90
11091;DHT22;5599;52.210;21.046;2023-08-07T11:26:19;22.60;99.90
11091;DHT22;5599;52.210;21.046;2023-08-07T11:28:49;22.50;1.00
11091;DHT22;5599;52.210;21.046;2023-08-07T11:31:19;22.50;1.00
11091;DHT22;5599;52.210;21.046;2023-08-07T11:33:51;22.60;99.90
11091;DHT22;5599;52.210;21.046;2023-08-07T11:36:22;22.60;1.00
11091;DHT22;5599;52.210;21.046;2023-08-07T11:38:52;22.70;99.90
11091;DHT22;5599;52.210;21.046;2023-08-07T11:41:21;22.90;99.90
11091;DHT22;5599;52.210;21.046;2023-08-07T11:43:51;23.30;99.90
11091;DHT22;5599;52.210;21.046;2023-08-07T11:46:21;23.40;99.90
11091;DHT22;5599;52.210;21.046;2023-08-07T11:48:52;23.40;99.90
11091;DHT22;5599;52.210;21.046;2023-08-07T11:51:23;23.50;1.00
11091;DHT22;5599;52.210;21.046;2023-08-07T11:53:52;23.70;99.90
11091;DHT22;5599;52.210;21.046;2023-08-07T11:56:26;23.90;99.90
11091;DHT22;5599;52.210;21.046;2023-08-07T11:58:57;24.00;99.90
11091;DHT22;5599;52.210;21.046;2023-08-07T12:01:27;24.00;1.00
11091;DHT22;5599;52.210;21.046;2023-08-07T12:04:09;24.10;1.00
11091;DHT22;5599;52.210;21.046;2023-08-07T12:06:38;24.10;1.00
11091;DHT22;5599;52.210;21.046;2023-08-07T12:09:08;23.90;1.00
11091;DHT22;5599;52.210;21.046;2023-08-07T12:11:41;23.80;1.00
11091;DHT22;5599;52.210;21.046;2023-08-07T12:14:13;23.70;99.90
11091;DHT22;5599;52.210;21.046;2023-08-07T12:16:45;23.50;99.90
11091;DHT22;5599;52.210;21.046;2023-08-07T12:19:16;23.40;50.90
11091;DHT22;5599;52.210;21.046;2023-08-07T12:21:46;23.30;99.90
11091;DHT22;5599;52.210;21.046;2023-08-07T12:24:15;23.10;99.90
11091;DHT22;5599;52.210;21.046;2023-08-07T12:26:48;22.90;1.00
11091;DHT22;5599;52.210;21.046;2023-08-07T12:29:17;22.90;99.90
11091;DHT22;5599;52.210;21.046;2023-08-07T12:31:46;22.80;99.90
11091;DHT22;5599;52.210;21.046;2023-08-07T12:34:17;22.50;99.90
11091;DHT22;5599;52.210;21.046;2023-08-07T12:36:49;22.30;99.90
11091;DHT22;5599;52.210;21.046;2023-08-07T12:39:18;22.10;99.90
11091;DHT22;5599;52.210;21.046;2023-08-07T12:41:49;21.90;99.90
11091;DHT22;5599;52.210;21.046;2023-08-07T12:44:21;21.90;99.90
11091;DHT22;5599;52.210;21.046;2023-08-07T12:46:50;21.80;1.00
11091;DHT22;5599;52.210;21.046;2023-08-07T12:49:21;21.90;99.90
11091;DHT22;5599;52.210;21.046;2023-08-07T12:51:50;22.10;99.90
11091;DHT22;5599;52.210;21.046;2023-08-07T12:54:19;21.90;99.90
11091;DHT22;5599;52.210;21.046;2023-08-07T12:56:49;22.00;99.90
11091;DHT22;5599;52.210;21.046;2023-08-07T12:59:19;22.10;99.90
11091;DHT22;5599;52.210;21.046;2023-08-07T13:01:48;22.10;99.90
11091;DHT22;5599;52.210;21.046;2023-08-07T13:04:17;22.10;99.90
11091;DHT22;5599;52.210;21.046;2023-08-07T13:06:48;22.40;99.90
11091;DHT22;5599;52.210;21.046;2023-08-07T13:09:17;22.50;99.90
11091;DHT22;5599;52.210;21.046;2023-08-07T13:11:46;22.50;99.90
11091;DHT22;5599;52.210;21.046;2023-08-07T13:14:15;22.60;99.90
11091;DHT22;5599;52.210;21.046;2023-08-07T13:16:45;22.80;99.90
11091;DHT22;5599;52.210;21.046;2023-08-07T13:19:14;22.80;99.90
11091;DHT22;5599;52.210;21.046;2023-08-07T13:21:43;23.00;99.90
11091;DHT22;5599;52.210;21.046;2023-08-07T13:24:13;23.10;99.90
11091;DHT22;5599;52.210;21.046;2023-08-07T13:26:45;23.10;99.90
11091;DHT22;5599;52.210;21.046;2023-08-07T13:29:14;23.10;12.70
11091;DHT22;5599;52.210;21.046;2023-08-07T13:31:43;23.00;1.00
11091;DHT22;5599;52.210;21.046;2023-08-07T13:34:14;23.00;1.00
11091;DHT22;5599;52.210;21.046;2023-08-07T13:36:43;22.90;99.90
11091;DHT22;5599;52.210;21.046;2023-08-07T13:39:13;22.90;1.00
11091;DHT22;5599;52.210;21.046;2023-08-07T13:41:43;22.90;1.00
11091;DHT22;5599;52.210;21.046;2023-08-07T13:44:12;22.80;1.00
11091;DHT22;5599;52.210;21.046;2023-08-07T13:46:44;22.80;28.10
11091;DHT22;5599;52.210;21.046;2023-08-07T13:49:15;22.60;1.00
11091;DHT22;5599;52.210;21.046;2023-08-07T13:51:45;22.30;1.00
11091;DHT22;5599;52.210;21.046;2023-08-07T13:54:16;22.20;1.00
11091;DHT22;5599;52.210;21.046;2023-08-07T13:56:48;22.00;99.90
11091;DHT22;5599;52.210;21.046;2023-08-07T13:59:19;21.90;99.90
11091;DHT22;5599;52.210;21.046;2023-08-07T14:01:49;21.80;99.90
11091;DHT22;5599;52.210;21.046;2023-08-07T14:07:14;21.60;1.00
11091;DHT22;5599;52.210;21.046;2023-08-07T14:09:48;21.50;1.00
11091;DHT22;5599;52.210;21.046;2023-08-07T14:12:22;21.40;1.00
11091;DHT22;5599;52.210;21.046;2023-08-07T14:14:54;21.40;1.00
11091;DHT22;5599;52.210;21.046;2023-08-07T14:17:27;21.40;1.00
11091;DHT22;5599;52.210;21.046;2023-08-07T14:19:57;21.40;1.00
11091;DHT22;5599;52.210;21.046;2023-08-07T14:22:28;21.40;97.30
11091;DHT22;5599;52.210;21.046;2023-08-07T14:25:00;21.50;99.90
11091;DHT22;5599;52.210;21.046;2023-08-07T14:27:29;21.60;40.30
11091;DHT22;5599;52.210;21.046;2023-08-07T14:29:59;21.80;99.90
11091;DHT22;5599;52.210;21.046;2023-08-07T14:32:28;21.90;1.00
11091;DHT22;5599;52.210;21.046;2023-08-07T14:34:59;21.90;1.00
11091;DHT22;5599;52.210;21.046;2023-08-07T14:37:29;21.90;1.00
11091;DHT22;5599;52.210;21.046;2023-08-07T14:40:01;21.80;1.00
11091;DHT22;5599;52.210;21.046;2023-08-07T14:42:30;21.70;99.90
11091;DHT22;5599;52.210;21.046;2023-08-07T14:45:00;21.40;99.90
11091;DHT22;5599;52.210;21.046;2023-08-07T14:47:31;21.10;1.00
11091;DHT22;5599;52.210;21.046;2023-08-07T14:50:02;21.10;29.70
11091;DHT22;5599;52.210;21.046;2023-08-07T14:52:32;21.00;99.90
11091;DHT22;5599;52.210;21.046;2023-08-07T14:55:04;20.80;1.00
11091;DHT22;5599;52.210;21.046;2023-08-07T14:57:35;20.90;99.90
11091;DHT22;5599;52.210;21.046;2023-08-07T15:00:06;21.00;97.20
11091;DHT22;5599;52.210;21.046;2023-08-07T15:02:36;21.30;1.00
11091;DHT22;5599;52.210;21.046;2023-08-07T15:05:08;21.60;1.00
11091;DHT22;5599;52.210;21.046;2023-08-07T15:07:38;21.80;1.00
11091;DHT22;5599;52.210;21.046;2023-08-07T15:10:09;21.90;1.00
11091;DHT22;5599;52.210;21.046;2023-08-07T15:12:40;22.00;99.90
11091;DHT22;5599;52.210;21.046;2023-08-07T15:15:14;22.20;1.00
11091;DHT22;5599;52.210;21.046;2023-08-07T15:18:02;22.30;1.00
11091;DHT22;5599;52.210;21.046;2023-08-07T15:20:48;22.40;99.90
11091;DHT22;5599;52.210;21.046;2023-08-07T15:23:21;22.20;1.00
11091;DHT22;5599;52.210;21.046;2023-08-07T15:25:53;21.90;1.00
11091;DHT22;5599;52.210;21.046;2023-08-07T15:28:27;21.80;99.90
11091;DHT22;5599;52.210;21.046;2023-08-07T15:30:57;21.80;99.90
11091;DHT22;5599;52.210;21.046;2023-08-07T15:33:31;21.70;99.90
11091;DHT22;5599;52.210;21.046;2023-08-07T15:36:17;21.60;99.90
11091;DHT22;5599;52.210;21.046;2023-08-07T15:42:22;21.50;99.90
11091;DHT22;5599;52.210;21.046;2023-08-07T15:44:54;21.50;1.00
11091;DHT22;5599;52.210;21.046;2023-08-07T15:47:56;21.50;1.00
11091;DHT22;5599;52.210;21.046;2023-08-07T15:50:27;21.40;1.00
11091;DHT22;5599;52.210;21.046;2023-08-07T15:52:59;21.50;99.90
11091;DHT22;5599;52.210;21.046;2023-08-07T15:55:31;21.70;99.90
11091;DHT22;5599;52.210;21.046;2023-08-07T15:58:07;21.80;99.90
11091;DHT22;5599;52.210;21.046;2023-08-07T16:00:38;22.00;99.90
11091;DHT22;5599;52.210;21.046;2023-08-07T16:03:09;22.20;99.90
11091;DHT22;5599;52.210;21.046;2023-08-07T16:05:40;22.30;99.90
11091;DHT22;5599;52.210;21.046;2023-08-07T16:08:15;22.30;99.90
11091;DHT22;5599;52.210;21.046;2023-08-07T16:10:48;22.30;99.90
11091;DHT22;5599;52.210;21.046;2023-08-07T16:13:20;22.30;1.00
11091;DHT22;5599;52.210;21.046;2023-08-07T16:15:51;22.30;99.90
11091;DHT22;5599;52.210;21.046;2023-08-07T16:18:21;22.20;99.90
11091;DHT22;5599;52.210;21.046;2023-08-07T16:20:51;22.10;99.90
11091;DHT22;5599;52.210;21.046;2023-08-07T16:23:30;22.10;99.90
11091;DHT22;5599;52.210;21.046;2023-08-07T16:26:05;21.90;1.00
11091;DHT22;5599;52.210;21.046;2023-08-07T16:28:37;21.80;1.00